Diomede, Alaska
Current Conditions -  °F | °C
As of 4:58 AM on Monday 26 Jan 2015 (Local Time) from PATE Reporting Station
Clear Clear  
Wind Chill: -29°   Ceiling: Unl
Heat Index: -13°   Visibility: 10mi
Dew Point: -18°   Wind: 7mph
Humidity: 78%   Direction: 120°ESE
Pressure: 30.2"   Gusts: NA
Location:  65.1617°N, 164.975°W
Report Text: PATE 261358Z AUTO 12006KT 10SM CLR M25/M28 A3020 RMK AO2 SLP242 T12501278 FZRANO
Loading
Personal Weather Stations






























Interactive Weather Map New forecast layout! Learn more

10-Day Weather Forecast

Advertisements
Track Severe Weather on mobile